sensor_id;sensor_type;location;lat;lon;timestamp;P1;durP1;ratioP1;P2;durP2;ratioP2
41705;SDS011;27385;51.096;17.190;2023-06-04T00:02:02;7.60;;;1.60;;
41705;SDS011;27385;51.096;17.190;2023-06-04T00:04:33;8.30;;;1.40;;
41705;SDS011;27385;51.096;17.190;2023-06-04T00:07:04;8.50;;;1.50;;
41705;SDS011;27385;51.096;17.190;2023-06-04T00:09:36;8.50;;;1.30;;
41705;SDS011;27385;51.096;17.190;2023-06-04T00:12:07;7.50;;;1.50;;
41705;SDS011;27385;51.096;17.190;2023-06-04T00:14:38;8.10;;;1.40;;
41705;SDS011;27385;51.096;17.190;2023-06-04T00:17:10;7.30;;;1.30;;
41705;SDS011;27385;51.096;17.190;2023-06-04T00:19:41;10.10;;;1.80;;
41705;SDS011;27385;51.096;17.190;2023-06-04T00:22:12;8.70;;;1.50;;
41705;SDS011;27385;51.096;17.190;2023-06-04T00:24:42;12.40;;;1.80;;
41705;SDS011;27385;51.096;17.190;2023-06-04T00:27:14;10.70;;;2.40;;
41705;SDS011;27385;51.096;17.190;2023-06-04T00:29:44;16.30;;;3.60;;
41705;SDS011;27385;51.096;17.190;2023-06-04T00:32:15;13.20;;;3.20;;
41705;SDS011;27385;51.096;17.190;2023-06-04T00:34:51;19.10;;;4.70;;
41705;SDS011;27385;51.096;17.190;2023-06-04T00:37:23;16.70;;;3.80;;
41705;SDS011;27385;51.096;17.190;2023-06-04T00:39:54;19.50;;;5.00;;
41705;SDS011;27385;51.096;17.190;2023-06-04T00:42:25;20.70;;;5.20;;
41705;SDS011;27385;51.096;17.190;2023-06-04T00:44:56;21.30;;;4.70;;
41705;SDS011;27385;51.096;17.190;2023-06-04T00:47:27;16.10;;;4.50;;
41705;SDS011;27385;51.096;17.190;2023-06-04T00:49:58;15.90;;;3.40;;
41705;SDS011;27385;51.096;17.190;2023-06-04T00:52:29;17.20;;;3.70;;
41705;SDS011;27385;51.096;17.190;2023-06-04T00:55:00;12.70;;;3.60;;
41705;SDS011;27385;51.096;17.190;2023-06-04T00:57:31;16.10;;;3.80;;
41705;SDS011;27385;51.096;17.190;2023-06-04T01:00:02;16.10;;;4.00;;
41705;SDS011;27385;51.096;17.190;2023-06-04T01:02:35;15.00;;;3.30;;
41705;SDS011;27385;51.096;17.190;2023-06-04T01:05:11;15.60;;;3.90;;
41705;SDS011;27385;51.096;17.190;2023-06-04T01:07:47;12.90;;;4.00;;
41705;SDS011;27385;51.096;17.190;2023-06-04T01:10:19;16.50;;;4.70;;
41705;SDS011;27385;51.096;17.190;2023-06-04T01:12:50;16.50;;;4.80;;
41705;SDS011;27385;51.096;17.190;2023-06-04T01:15:21;14.80;;;4.10;;
41705;SDS011;27385;51.096;17.190;2023-06-04T01:17:52;17.10;;;4.30;;
41705;SDS011;27385;51.096;17.190;2023-06-04T01:20:32;13.60;;;3.00;;
41705;SDS011;27385;51.096;17.190;2023-06-04T01:23:14;11.90;;;3.10;;
41705;SDS011;27385;51.096;17.190;2023-06-04T01:25:56;11.10;;;1.80;;
41705;SDS011;27385;51.096;17.190;2023-06-04T01:28:30;10.00;;;2.20;;
41705;SDS011;27385;51.096;17.190;2023-06-04T01:31:04;9.10;;;1.90;;
41705;SDS011;27385;51.096;17.190;2023-06-04T01:33:36;10.80;;;1.70;;
41705;SDS011;27385;51.096;17.190;2023-06-04T01:36:07;8.00;;;1.70;;
41705;SDS011;27385;51.096;17.190;2023-06-04T01:38:40;10.10;;;2.00;;
41705;SDS011;27385;51.096;17.190;2023-06-04T01:41:10;10.70;;;1.70;;
41705;SDS011;27385;51.096;17.190;2023-06-04T01:43:42;11.70;;;1.60;;
41705;SDS011;27385;51.096;17.190;2023-06-04T01:46:12;10.70;;;2.30;;
41705;SDS011;27385;51.096;17.190;2023-06-04T01:48:43;8.80;;;1.60;;
41705;SDS011;27385;51.096;17.190;2023-06-04T01:51:16;9.50;;;2.10;;
41705;SDS011;27385;51.096;17.190;2023-06-04T01:53:47;14.40;;;2.50;;
41705;SDS011;27385;51.096;17.190;2023-06-04T01:56:18;12.00;;;2.40;;
41705;SDS011;27385;51.096;17.190;2023-06-04T01:58:49;14.20;;;2.60;;
41705;SDS011;27385;51.096;17.190;2023-06-04T02:01:20;9.00;;;2.30;;
41705;SDS011;27385;51.096;17.190;2023-06-04T02:03:51;12.20;;;2.00;;
41705;SDS011;27385;51.096;17.190;2023-06-04T02:06:22;7.40;;;1.60;;
41705;SDS011;27385;51.096;17.190;2023-06-04T02:08:59;7.30;;;1.50;;
41705;SDS011;27385;51.096;17.190;2023-06-04T02:11:31;8.20;;;1.60;;
41705;SDS011;27385;51.096;17.190;2023-06-04T02:14:02;15.20;;;1.90;;
41705;SDS011;27385;51.096;17.190;2023-06-04T02:16:33;7.20;;;1.60;;
41705;SDS011;27385;51.096;17.190;2023-06-04T02:19:05;10.30;;;1.60;;
41705;SDS011;27385;51.096;17.190;2023-06-04T02:21:36;9.00;;;1.80;;
41705;SDS011;27385;51.096;17.190;2023-06-04T02:24:07;8.80;;;1.50;;
41705;SDS011;27385;51.096;17.190;2023-06-04T02:26:38;9.30;;;1.60;;
41705;SDS011;27385;51.096;17.190;2023-06-04T02:29:10;8.30;;;1.80;;
41705;SDS011;27385;51.096;17.190;2023-06-04T02:31:41;6.60;;;1.30;;
41705;SDS011;27385;51.096;17.190;2023-06-04T02:34:12;8.30;;;1.80;;
41705;SDS011;27385;51.096;17.190;2023-06-04T02:36:43;8.90;;;1.90;;
41705;SDS011;27385;51.096;17.190;2023-06-04T02:39:16;8.50;;;1.90;;
41705;SDS011;27385;51.096;17.190;2023-06-04T02:41:47;10.90;;;2.20;;
41705;SDS011;27385;51.096;17.190;2023-06-04T02:44:17;10.70;;;1.90;;
41705;SDS011;27385;51.096;17.190;2023-06-04T02:46:48;10.90;;;2.00;;
41705;SDS011;27385;51.096;17.190;2023-06-04T02:49:19;8.30;;;2.00;;
41705;SDS011;27385;51.096;17.190;2023-06-04T02:51:50;13.70;;;2.30;;
41705;SDS011;27385;51.096;17.190;2023-06-04T02:54:21;7.10;;;1.60;;
41705;SDS011;27385;51.096;17.190;2023-06-04T02:56:52;12.00;;;1.70;;
41705;SDS011;27385;51.096;17.190;2023-06-04T02:59:23;9.30;;;1.80;;
41705;SDS011;27385;51.096;17.190;2023-06-04T03:01:54;10.50;;;1.80;;
41705;SDS011;27385;51.096;17.190;2023-06-04T03:04:25;8.40;;;1.80;;
41705;SDS011;27385;51.096;17.190;2023-06-04T03:07:02;8.30;;;1.70;;
41705;SDS011;27385;51.096;17.190;2023-06-04T03:09:35;9.30;;;1.50;;
41705;SDS011;27385;51.096;17.190;2023-06-04T03:12:07;4.90;;;1.30;;
41705;SDS011;27385;51.096;17.190;2023-06-04T03:14:38;9.20;;;1.80;;
41705;SDS011;27385;51.096;17.190;2023-06-04T03:17:09;9.00;;;1.20;;
41705;SDS011;27385;51.096;17.190;2023-06-04T03:19:41;13.30;;;1.50;;
41705;SDS011;27385;51.096;17.190;2023-06-04T03:22:11;6.80;;;1.50;;
41705;SDS011;27385;51.096;17.190;2023-06-04T03:24:43;7.30;;;1.20;;
41705;SDS011;27385;51.096;17.190;2023-06-04T03:27:14;7.10;;;1.50;;
41705;SDS011;27385;51.096;17.190;2023-06-04T03:29:45;8.80;;;1.10;;
41705;SDS011;27385;51.096;17.190;2023-06-04T03:32:16;5.60;;;1.10;;
41705;SDS011;27385;51.096;17.190;2023-06-04T03:34:47;7.50;;;1.30;;
41705;SDS011;27385;51.096;17.190;2023-06-04T03:37:18;7.40;;;1.10;;
41705;SDS011;27385;51.096;17.190;2023-06-04T03:39:49;12.60;;;1.50;;
41705;SDS011;27385;51.096;17.190;2023-06-04T03:42:20;7.90;;;1.30;;
41705;SDS011;27385;51.096;17.190;2023-06-04T03:44:51;7.50;;;1.40;;
41705;SDS011;27385;51.096;17.190;2023-06-04T03:47:22;9.00;;;1.30;;
41705;SDS011;27385;51.096;17.190;2023-06-04T03:49:53;8.40;;;1.40;;
41705;SDS011;27385;51.096;17.190;2023-06-04T03:52:23;7.50;;;1.20;;
41705;SDS011;27385;51.096;17.190;2023-06-04T03:54:54;7.50;;;1.40;;
41705;SDS011;27385;51.096;17.190;2023-06-04T03:57:25;7.80;;;1.50;;
41705;SDS011;27385;51.096;17.190;2023-06-04T03:59:57;8.30;;;1.50;;
41705;SDS011;27385;51.096;17.190;2023-06-04T04:02:28;6.60;;;1.20;;
41705;SDS011;27385;51.096;17.190;2023-06-04T04:04:58;10.00;;;2.00;;
41705;SDS011;27385;51.096;17.190;2023-06-04T04:07:30;10.70;;;1.70;;
41705;SDS011;27385;51.096;17.190;2023-06-04T04:10:01;10.10;;;1.90;;
41705;SDS011;27385;51.096;17.190;2023-06-04T04:12:33;10.10;;;2.10;;
41705;SDS011;27385;51.096;17.190;2023-06-04T04:15:05;9.80;;;1.80;;
41705;SDS011;27385;51.096;17.190;2023-06-04T04:17:36;8.50;;;1.60;;
41705;SDS011;27385;51.096;17.190;2023-06-04T04:20:07;9.60;;;1.50;;
41705;SDS011;27385;51.096;17.190;2023-06-04T04:22:41;11.60;;;1.80;;
41705;SDS011;27385;51.096;17.190;2023-06-04T04:25:12;12.70;;;2.50;;
41705;SDS011;27385;51.096;17.190;2023-06-04T04:27:42;16.10;;;4.70;;
41705;SDS011;27385;51.096;17.190;2023-06-04T04:30:16;17.20;;;4.40;;
41705;SDS011;27385;51.096;17.190;2023-06-04T04:32:47;20.90;;;5.20;;
41705;SDS011;27385;51.096;17.190;2023-06-04T04:35:18;20.60;;;4.40;;
41705;SDS011;27385;51.096;17.190;2023-06-04T04:37:51;13.30;;;3.20;;
41705;SDS011;27385;51.096;17.190;2023-06-04T04:40:22;13.00;;;2.90;;
41705;SDS011;27385;51.096;17.190;2023-06-04T04:42:53;13.00;;;2.80;;
41705;SDS011;27385;51.096;17.190;2023-06-04T04:45:24;8.20;;;2.10;;
41705;SDS011;27385;51.096;17.190;2023-06-04T04:47:55;12.90;;;3.30;;
41705;SDS011;27385;51.096;17.190;2023-06-04T04:50:26;11.30;;;2.20;;
41705;SDS011;27385;51.096;17.190;2023-06-04T04:52:59;16.30;;;2.30;;
41705;SDS011;27385;51.096;17.190;2023-06-04T04:55:30;9.50;;;1.70;;
41705;SDS011;27385;51.096;17.190;2023-06-04T04:58:00;8.90;;;1.50;;
41705;SDS011;27385;51.096;17.190;2023-06-04T05:00:31;11.10;;;1.60;;
41705;SDS011;27385;51.096;17.190;2023-06-04T05:03:02;7.10;;;1.40;;
41705;SDS011;27385;51.096;17.190;2023-06-04T05:05:34;10.60;;;1.50;;
41705;SDS011;27385;51.096;17.190;2023-06-04T05:08:05;8.20;;;1.60;;
41705;SDS011;27385;51.096;17.190;2023-06-04T05:10:37;9.20;;;1.30;;
41705;SDS011;27385;51.096;17.190;2023-06-04T05:13:08;9.10;;;1.60;;
41705;SDS011;27385;51.096;17.190;2023-06-04T05:15:39;7.70;;;1.40;;
41705;SDS011;27385;51.096;17.190;2023-06-04T05:18:10;8.00;;;1.60;;
41705;SDS011;27385;51.096;17.190;2023-06-04T05:20:40;6.60;;;1.30;;
41705;SDS011;27385;51.096;17.190;2023-06-04T05:23:12;8.50;;;1.40;;
41705;SDS011;27385;51.096;17.190;2023-06-04T05:25:43;7.80;;;1.70;;
41705;SDS011;27385;51.096;17.190;2023-06-04T05:28:16;6.10;;;1.20;;
41705;SDS011;27385;51.096;17.190;2023-06-04T05:30:48;10.80;;;1.20;;
41705;SDS011;27385;51.096;17.190;2023-06-04T05:33:19;8.70;;;1.30;;
41705;SDS011;27385;51.096;17.190;2023-06-04T05:35:50;6.50;;;1.20;;
41705;SDS011;27385;51.096;17.190;2023-06-04T05:38:22;8.20;;;1.00;;
41705;SDS011;27385;51.096;17.190;2023-06-04T05:40:54;5.10;;;1.00;;
41705;SDS011;27385;51.096;17.190;2023-06-04T05:43:25;5.80;;;0.90;;
41705;SDS011;27385;51.096;17.190;2023-06-04T05:45:56;9.20;;;1.30;;
41705;SDS011;27385;51.096;17.190;2023-06-04T05:48:27;7.70;;;0.90;;
41705;SDS011;27385;51.096;17.190;2023-06-04T05:50:58;7.40;;;1.20;;
41705;SDS011;27385;51.096;17.190;2023-06-04T05:53:29;6.80;;;1.20;;
41705;SDS011;27385;51.096;17.190;2023-06-04T05:56:00;5.70;;;1.00;;
41705;SDS011;27385;51.096;17.190;2023-06-04T05:58:32;8.70;;;1.20;;
41705;SDS011;27385;51.096;17.190;2023-06-04T06:01:03;9.60;;;1.20;;
41705;SDS011;27385;51.096;17.190;2023-06-04T06:03:34;5.30;;;1.00;;
41705;SDS011;27385;51.096;17.190;2023-06-04T06:06:05;5.40;;;0.90;;
41705;SDS011;27385;51.096;17.190;2023-06-04T06:08:38;7.10;;;1.10;;
41705;SDS011;27385;51.096;17.190;2023-06-04T06:11:09;6.30;;;1.20;;
41705;SDS011;27385;51.096;17.190;2023-06-04T06:13:40;5.70;;;1.00;;
41705;SDS011;27385;51.096;17.190;2023-06-04T06:16:13;6.30;;;1.10;;
41705;SDS011;27385;51.096;17.190;2023-06-04T06:18:44;7.40;;;1.50;;
41705;SDS011;27385;51.096;17.190;2023-06-04T06:21:15;8.20;;;1.30;;
41705;SDS011;27385;51.096;17.190;2023-06-04T06:23:46;6.50;;;1.10;;
41705;SDS011;27385;51.096;17.190;2023-06-04T06:26:17;4.50;;;0.80;;
41705;SDS011;27385;51.096;17.190;2023-06-04T06:28:49;8.20;;;1.50;;
41705;SDS011;27385;51.096;17.190;2023-06-04T06:31:20;6.80;;;0.90;;
41705;SDS011;27385;51.096;17.190;2023-06-04T06:33:51;4.70;;;0.80;;
41705;SDS011;27385;51.096;17.190;2023-06-04T06:36:22;7.50;;;0.90;;
41705;SDS011;27385;51.096;17.190;2023-06-04T06:38:54;4.10;;;0.90;;
41705;SDS011;27385;51.096;17.190;2023-06-04T06:41:25;6.00;;;0.90;;
41705;SDS011;27385;51.096;17.190;2023-06-04T06:43:57;8.70;;;0.80;;
41705;SDS011;27385;51.096;17.190;2023-06-04T06:46:28;4.60;;;0.90;;
41705;SDS011;27385;51.096;17.190;2023-06-04T06:48:59;5.40;;;0.90;;
41705;SDS011;27385;51.096;17.190;2023-06-04T06:51:30;15.30;;;1.00;;
41705;SDS011;27385;51.096;17.190;2023-06-04T06:54:01;8.50;;;1.20;;
41705;SDS011;27385;51.096;17.190;2023-06-04T06:56:32;6.20;;;0.80;;
41705;SDS011;27385;51.096;17.190;2023-06-04T06:59:03;5.40;;;0.90;;
41705;SDS011;27385;51.096;17.190;2023-06-04T07:01:34;4.40;;;0.70;;
41705;SDS011;27385;51.096;17.190;2023-06-04T07:04:05;4.40;;;0.80;;
41705;SDS011;27385;51.096;17.190;2023-06-04T07:06:36;4.90;;;0.90;;
41705;SDS011;27385;51.096;17.190;2023-06-04T07:09:07;5.90;;;0.80;;
41705;SDS011;27385;51.096;17.190;2023-06-04T07:11:38;5.90;;;0.90;;
41705;SDS011;27385;51.096;17.190;2023-06-04T07:14:09;5.60;;;0.90;;
41705;SDS011;27385;51.096;17.190;2023-06-04T07:16:41;4.50;;;0.70;;
41705;SDS011;27385;51.096;17.190;2023-06-04T07:19:11;4.00;;;0.70;;
41705;SDS011;27385;51.096;17.190;2023-06-04T07:21:42;3.70;;;0.80;;
41705;SDS011;27385;51.096;17.190;2023-06-04T07:24:14;5.50;;;0.60;;
41705;SDS011;27385;51.096;17.190;2023-06-04T07:26:45;4.70;;;1.00;;
41705;SDS011;27385;51.096;17.190;2023-06-04T07:29:15;7.10;;;0.80;;
41705;SDS011;27385;51.096;17.190;2023-06-04T07:31:46;5.90;;;0.80;;
41705;SDS011;27385;51.096;17.190;2023-06-04T07:34:17;3.70;;;0.70;;
41705;SDS011;27385;51.096;17.190;2023-06-04T07:36:49;6.80;;;1.00;;
41705;SDS011;27385;51.096;17.190;2023-06-04T07:39:20;5.00;;;0.80;;
41705;SDS011;27385;51.096;17.190;2023-06-04T07:41:51;5.60;;;0.70;;
41705;SDS011;27385;51.096;17.190;2023-06-04T07:44:22;5.40;;;0.80;;
41705;SDS011;27385;51.096;17.190;2023-06-04T07:46:53;4.20;;;0.60;;
41705;SDS011;27385;51.096;17.190;2023-06-04T07:49:24;4.00;;;0.80;;
41705;SDS011;27385;51.096;17.190;2023-06-04T07:51:55;4.20;;;0.80;;
41705;SDS011;27385;51.096;17.190;2023-06-04T07:54:26;5.10;;;0.80;;
41705;SDS011;27385;51.096;17.190;2023-06-04T07:56:57;4.60;;;1.10;;
41705;SDS011;27385;51.096;17.190;2023-06-04T07:59:28;6.90;;;1.10;;
41705;SDS011;27385;51.096;17.190;2023-06-04T08:01:59;6.00;;;0.80;;
41705;SDS011;27385;51.096;17.190;2023-06-04T08:04:30;6.40;;;0.90;;
41705;SDS011;27385;51.096;17.190;2023-06-04T08:07:01;4.50;;;0.80;;
41705;SDS011;27385;51.096;17.190;2023-06-04T08:09:32;3.10;;;0.60;;
41705;SDS011;27385;51.096;17.190;2023-06-04T08:12:04;5.20;;;0.90;;
41705;SDS011;27385;51.096;17.190;2023-06-04T08:14:35;3.30;;;0.70;;
41705;SDS011;27385;51.096;17.190;2023-06-04T08:17:06;5.80;;;0.80;;
41705;SDS011;27385;51.096;17.190;2023-06-04T08:19:37;5.50;;;0.70;;
41705;SDS011;27385;51.096;17.190;2023-06-04T08:22:08;7.00;;;1.10;;
41705;SDS011;27385;51.096;17.190;2023-06-04T08:24:39;3.40;;;0.80;;
41705;SDS011;27385;51.096;17.190;2023-06-04T08:27:10;3.80;;;0.60;;
41705;SDS011;27385;51.096;17.190;2023-06-04T08:29:41;9.10;;;0.90;;
41705;SDS011;27385;51.096;17.190;2023-06-04T08:32:12;3.30;;;0.50;;
41705;SDS011;27385;51.096;17.190;2023-06-04T08:34:43;4.10;;;0.60;;
41705;SDS011;27385;51.096;17.190;2023-06-04T08:37:14;4.30;;;0.80;;
41705;SDS011;27385;51.096;17.190;2023-06-04T08:39:45;7.10;;;0.70;;
41705;SDS011;27385;51.096;17.190;2023-06-04T08:42:18;4.90;;;0.70;;
41705;SDS011;27385;51.096;17.190;2023-06-04T08:47:28;5.80;;;0.80;;
41705;SDS011;27385;51.096;17.190;2023-06-04T08:50:03;3.90;;;0.50;;
41705;SDS011;27385;51.096;17.190;2023-06-04T08:52:38;5.20;;;0.90;;
41705;SDS011;27385;51.096;17.190;2023-06-04T08:55:09;4.30;;;1.40;;
41705;SDS011;27385;51.096;17.190;2023-06-04T08:57:42;6.70;;;0.70;;
41705;SDS011;27385;51.096;17.190;2023-06-04T09:00:15;4.10;;;0.60;;
41705;SDS011;27385;51.096;17.190;2023-06-04T09:02:46;4.80;;;0.50;;
41705;SDS011;27385;51.096;17.190;2023-06-04T09:05:20;6.60;;;0.60;;
41705;SDS011;27385;51.096;17.190;2023-06-04T09:07:52;4.70;;;0.60;;
41705;SDS011;27385;51.096;17.190;2023-06-04T09:10:24;4.00;;;0.60;;
41705;SDS011;27385;51.096;17.190;2023-06-04T09:12:56;3.80;;;0.60;;
41705;SDS011;27385;51.096;17.190;2023-06-04T09:15:31;2.90;;;0.60;;
41705;SDS011;27385;51.096;17.190;2023-06-04T09:18:02;2.90;;;0.50;;
41705;SDS011;27385;51.096;17.190;2023-06-04T09:20:33;2.10;;;0.40;;
41705;SDS011;27385;51.096;17.190;2023-06-04T09:23:13;4.90;;;0.50;;
41705;SDS011;27385;51.096;17.190;2023-06-04T09:25:46;4.10;;;0.60;;
41705;SDS011;27385;51.096;17.190;2023-06-04T09:28:19;2.70;;;0.50;;
41705;SDS011;27385;51.096;17.190;2023-06-04T09:30:54;4.40;;;0.60;;
41705;SDS011;27385;51.096;17.190;2023-06-04T09:33:25;3.50;;;0.50;;
41705;SDS011;27385;51.096;17.190;2023-06-04T09:35:57;2.90;;;0.50;;
41705;SDS011;27385;51.096;17.190;2023-06-04T09:38:34;7.30;;;0.60;;
41705;SDS011;27385;51.096;17.190;2023-06-04T09:41:10;9.90;;;1.90;;
41705;SDS011;27385;51.096;17.190;2023-06-04T09:43:42;9.70;;;1.80;;
41705;SDS011;27385;51.096;17.190;2023-06-04T09:46:13;5.30;;;0.90;;
41705;SDS011;27385;51.096;17.190;2023-06-04T09:48:46;4.10;;;0.90;;
41705;SDS011;27385;51.096;17.190;2023-06-04T09:51:17;4.00;;;0.80;;
41705;SDS011;27385;51.096;17.190;2023-06-04T09:53:54;4.60;;;0.90;;
41705;SDS011;27385;51.096;17.190;2023-06-04T09:56:26;5.50;;;0.90;;
41705;SDS011;27385;51.096;17.190;2023-06-04T09:58:59;2.10;;;0.50;;
41705;SDS011;27385;51.096;17.190;2023-06-04T10:01:31;4.60;;;0.60;;
41705;SDS011;27385;51.096;17.190;2023-06-04T10:04:04;4.50;;;0.70;;
41705;SDS011;27385;51.096;17.190;2023-06-04T10:06:39;4.80;;;0.50;;
41705;SDS011;27385;51.096;17.190;2023-06-04T10:09:11;4.10;;;0.50;;
41705;SDS011;27385;51.096;17.190;2023-06-04T10:11:46;3.10;;;0.50;;
41705;SDS011;27385;51.096;17.190;2023-06-04T10:14:22;2.80;;;0.40;;
41705;SDS011;27385;51.096;17.190;2023-06-04T10:16:56;2.40;;;0.40;;
41705;SDS011;27385;51.096;17.190;2023-06-04T10:19:28;2.80;;;0.60;;
41705;SDS011;27385;51.096;17.190;2023-06-04T10:22:00;5.20;;;0.70;;
41705;SDS011;27385;51.096;17.190;2023-06-04T10:24:32;3.70;;;0.50;;
41705;SDS011;27385;51.096;17.190;2023-06-04T10:27:03;3.00;;;0.50;;
41705;SDS011;27385;51.096;17.190;2023-06-04T10:29:38;5.60;;;0.70;;
41705;SDS011;27385;51.096;17.190;2023-06-04T10:32:09;6.20;;;0.80;;
41705;SDS011;27385;51.096;17.190;2023-06-04T10:34:41;3.30;;;0.70;;
41705;SDS011;27385;51.096;17.190;2023-06-04T10:37:19;2.70;;;0.50;;
41705;SDS011;27385;51.096;17.190;2023-06-04T10:39:52;4.40;;;0.60;;
41705;SDS011;27385;51.096;17.190;2023-06-04T10:42:24;4.60;;;1.20;;
41705;SDS011;27385;51.096;17.190;2023-06-04T10:45:07;4.50;;;0.80;;
41705;SDS011;27385;51.096;17.190;2023-06-04T10:47:39;3.40;;;0.50;;
41705;SDS011;27385;51.096;17.190;2023-06-04T10:50:13;5.70;;;1.00;;
41705;SDS011;27385;51.096;17.190;2023-06-04T10:52:51;1.80;;;0.40;;
41705;SDS011;27385;51.096;17.190;2023-06-04T10:55:25;4.40;;;0.60;;
41705;SDS011;27385;51.096;17.190;2023-06-04T10:57:57;3.60;;;0.50;;
41705;SDS011;27385;51.096;17.190;2023-06-04T11:00:38;3.30;;;0.50;;
41705;SDS011;27385;51.096;17.190;2023-06-04T11:03:11;2.10;;;0.40;;
41705;SDS011;27385;51.096;17.190;2023-06-04T11:05:42;3.20;;;0.60;;
41705;SDS011;27385;51.096;17.190;2023-06-04T11:08:14;2.90;;;0.50;;
41705;SDS011;27385;51.096;17.190;2023-06-04T11:10:56;2.40;;;0.50;;
41705;SDS011;27385;51.096;17.190;2023-06-04T11:13:26;3.50;;;0.60;;
41705;SDS011;27385;51.096;17.190;2023-06-04T11:15:57;4.30;;;0.40;;
41705;SDS011;27385;51.096;17.190;2023-06-04T11:18:28;3.40;;;0.50;;
41705;SDS011;27385;51.096;17.190;2023-06-04T11:21:00;3.90;;;0.50;;
41705;SDS011;27385;51.096;17.190;2023-06-04T11:23:32;5.80;;;0.60;;
41705;SDS011;27385;51.096;17.190;2023-06-04T11:26:03;5.20;;;0.50;;
41705;SDS011;27385;51.096;17.190;2023-06-04T11:28:34;3.40;;;0.70;;
41705;SDS011;27385;51.096;17.190;2023-06-04T11:31:05;3.00;;;0.50;;
41705;SDS011;27385;51.096;17.190;2023-06-04T11:33:46;2.80;;;0.40;;
41705;SDS011;27385;51.096;17.190;2023-06-04T11:36:23;4.70;;;0.60;;
41705;SDS011;27385;51.096;17.190;2023-06-04T11:38:56;2.60;;;0.60;;
41705;SDS011;27385;51.096;17.190;2023-06-04T11:41:28;3.10;;;0.50;;
41705;SDS011;27385;51.096;17.190;2023-06-04T11:44:00;2.80;;;0.60;;
41705;SDS011;27385;51.096;17.190;2023-06-04T11:46:33;5.60;;;0.70;;
41705;SDS011;27385;51.096;17.190;2023-06-04T11:49:04;3.30;;;0.60;;
41705;SDS011;27385;51.096;17.190;2023-06-04T11:51:36;8.50;;;0.50;;
41705;SDS011;27385;51.096;17.190;2023-06-04T11:54:08;2.80;;;0.50;;
41705;SDS011;27385;51.096;17.190;2023-06-04T11:56:40;4.70;;;0.90;;
41705;SDS011;27385;51.096;17.190;2023-06-04T11:59:13;4.50;;;1.50;;
41705;SDS011;27385;51.096;17.190;2023-06-04T12:01:46;3.70;;;0.60;;
41705;SDS011;27385;51.096;17.190;2023-06-04T12:04:18;2.90;;;0.60;;
41705;SDS011;27385;51.096;17.190;2023-06-04T12:06:53;6.60;;;1.80;;
41705;SDS011;27385;51.096;17.190;2023-06-04T12:09:29;4.40;;;1.00;;
41705;SDS011;27385;51.096;17.190;2023-06-04T12:12:03;3.70;;;0.70;;
41705;SDS011;27385;51.096;17.190;2023-06-04T12:14:35;3.60;;;0.70;;
41705;SDS011;27385;51.096;17.190;2023-06-04T12:17:07;3.80;;;0.50;;
41705;SDS011;27385;51.096;17.190;2023-06-04T12:19:46;2.60;;;0.50;;
41705;SDS011;27385;51.096;17.190;2023-06-04T12:22:18;2.30;;;0.50;;
41705;SDS011;27385;51.096;17.190;2023-06-04T12:24:50;5.80;;;0.50;;
41705;SDS011;27385;51.096;17.190;2023-06-04T12:27:22;3.10;;;0.50;;
41705;SDS011;27385;51.096;17.190;2023-06-04T12:29:58;3.60;;;0.60;;
41705;SDS011;27385;51.096;17.190;2023-06-04T12:32:34;5.80;;;0.80;;
41705;SDS011;27385;51.096;17.190;2023-06-04T12:35:06;3.30;;;0.50;;
41705;SDS011;27385;51.096;17.190;2023-06-04T12:37:37;3.10;;;0.40;;
41705;SDS011;27385;51.096;17.190;2023-06-04T12:40:17;2.40;;;0.50;;
41705;SDS011;27385;51.096;17.190;2023-06-04T12:42:48;4.00;;;0.50;;
41705;SDS011;27385;51.096;17.190;2023-06-04T12:45:20;5.70;;;0.90;;
41705;SDS011;27385;51.096;17.190;2023-06-04T12:47:51;2.00;;;0.60;;
41705;SDS011;27385;51.096;17.190;2023-06-04T12:50:22;3.60;;;0.70;;
41705;SDS011;27385;51.096;17.190;2023-06-04T12:52:53;3.20;;;0.40;;
41705;SDS011;27385;51.096;17.190;2023-06-04T12:55:24;4.30;;;0.50;;
41705;SDS011;27385;51.096;17.190;2023-06-04T12:57:55;5.90;;;0.70;;
41705;SDS011;27385;51.096;17.190;2023-06-04T13:00:26;2.10;;;0.40;;
41705;SDS011;27385;51.096;17.190;2023-06-04T13:02:57;5.50;;;0.40;;
41705;SDS011;27385;51.096;17.190;2023-06-04T13:05:28;2.90;;;0.50;;
41705;SDS011;27385;51.096;17.190;2023-06-04T13:07:59;5.90;;;0.70;;
41705;SDS011;27385;51.096;17.190;2023-06-04T13:10:31;4.30;;;0.40;;
41705;SDS011;27385;51.096;17.190;2023-06-04T13:13:02;3.60;;;0.60;;
41705;SDS011;27385;51.096;17.190;2023-06-04T13:15:32;4.90;;;0.50;;
41705;SDS011;27385;51.096;17.190;2023-06-04T13:18:03;2.80;;;0.50;;
41705;SDS011;27385;51.096;17.190;2023-06-04T13:20:35;3.10;;;0.60;;
41705;SDS011;27385;51.096;17.190;2023-06-04T13:23:06;3.30;;;0.40;;
41705;SDS011;27385;51.096;17.190;2023-06-04T13:25:39;6.40;;;1.30;;
41705;SDS011;27385;51.096;17.190;2023-06-04T13:28:10;3.10;;;0.70;;
41705;SDS011;27385;51.096;17.190;2023-06-04T13:30:41;2.90;;;0.60;;
41705;SDS011;27385;51.096;17.190;2023-06-04T13:33:12;1.90;;;0.40;;
41705;SDS011;27385;51.096;17.190;2023-06-04T13:35:44;3.80;;;0.50;;
41705;SDS011;27385;51.096;17.190;2023-06-04T13:38:15;2.40;;;0.40;;
41705;SDS011;27385;51.096;17.190;2023-06-04T13:40:47;3.00;;;0.40;;
41705;SDS011;27385;51.096;17.190;2023-06-04T13:43:18;2.70;;;0.50;;
41705;SDS011;27385;51.096;17.190;2023-06-04T13:45:48;2.60;;;0.60;;
41705;SDS011;27385;51.096;17.190;2023-06-04T13:48:20;4.10;;;0.50;;
41705;SDS011;27385;51.096;17.190;2023-06-04T13:50:51;2.60;;;0.50;;
41705;SDS011;27385;51.096;17.190;2023-06-04T13:53:22;2.50;;;0.50;;
41705;SDS011;27385;51.096;17.190;2023-06-04T13:55:53;5.60;;;0.70;;
41705;SDS011;27385;51.096;17.190;2023-06-04T13:58:26;8.10;;;0.60;;
41705;SDS011;27385;51.096;17.190;2023-06-04T14:00:57;4.20;;;0.40;;
41705;SDS011;27385;51.096;17.190;2023-06-04T14:03:27;3.40;;;0.40;;
41705;SDS011;27385;51.096;17.190;2023-06-04T14:05:58;3.20;;;0.40;;
41705;SDS011;27385;51.096;17.190;2023-06-04T14:08:29;12.40;;;0.90;;
41705;SDS011;27385;51.096;17.190;2023-06-04T14:11:01;2.80;;;0.50;;
41705;SDS011;27385;51.096;17.190;2023-06-04T14:13:31;2.50;;;0.50;;
41705;SDS011;27385;51.096;17.190;2023-06-04T14:16:02;3.10;;;0.50;;
41705;SDS011;27385;51.096;17.190;2023-06-04T14:18:33;3.90;;;0.50;;
41705;SDS011;27385;51.096;17.190;2023-06-04T14:21:04;4.00;;;0.50;;
41705;SDS011;27385;51.096;17.190;2023-06-04T14:23:35;3.50;;;0.50;;
41705;SDS011;27385;51.096;17.190;2023-06-04T14:26:06;2.40;;;0.50;;
41705;SDS011;27385;51.096;17.190;2023-06-04T14:28:37;5.20;;;0.40;;
41705;SDS011;27385;51.096;17.190;2023-06-04T14:31:08;3.80;;;0.50;;
41705;SDS011;27385;51.096;17.190;2023-06-04T14:33:39;2.60;;;0.50;;
41705;SDS011;27385;51.096;17.190;2023-06-04T14:36:11;3.00;;;0.50;;
41705;SDS011;27385;51.096;17.190;2023-06-04T14:38:43;2.60;;;0.40;;
41705;SDS011;27385;51.096;17.190;2023-06-04T14:41:14;2.10;;;0.50;;
41705;SDS011;27385;51.096;17.190;2023-06-04T14:43:45;2.40;;;0.40;;
41705;SDS011;27385;51.096;17.190;2023-06-04T14:46:16;3.30;;;0.40;;
41705;SDS011;27385;51.096;17.190;2023-06-04T14:48:47;4.30;;;0.50;;
41705;SDS011;27385;51.096;17.190;2023-06-04T14:51:17;4.60;;;0.80;;
41705;SDS011;27385;51.096;17.190;2023-06-04T14:53:49;9.70;;;2.10;;
41705;SDS011;27385;51.096;17.190;2023-06-04T14:56:20;3.00;;;0.80;;
41705;SDS011;27385;51.096;17.190;2023-06-04T14:58:51;6.70;;;1.30;;
41705;SDS011;27385;51.096;17.190;2023-06-04T15:01:22;29.00;;;14.80;;